createdAt,value
2018-11-11T00:00:26.370Z,9.10
2018-11-11T00:02:55.749Z,8.90
2018-11-11T00:05:24.938Z,9.00
2018-11-11T00:07:54.624Z,9.20
2018-11-11T00:10:23.794Z,9.50
2018-11-11T00:12:52.978Z,9.50
2018-11-11T00:15:22.207Z,9.60
2018-11-11T00:17:51.445Z,9.70
2018-11-11T00:20:20.622Z,9.40
2018-11-11T00:22:57.971Z,9.60
2018-11-11T00:25:27.182Z,9.40
2018-11-11T00:27:56.393Z,9.10
2018-11-11T00:30:25.569Z,8.50
2018-11-11T00:32:54.759Z,7.90
2018-11-11T00:35:24.026Z,7.70
2018-11-11T00:37:53.217Z,7.70
2018-11-11T00:40:22.409Z,7.70
2018-11-11T00:42:51.593Z,7.50
2018-11-11T00:45:20.805Z,7.50
2018-11-11T00:47:58.239Z,7.40
2018-11-11T00:50:27.424Z,7.50
2018-11-11T00:52:59.947Z,7.40
2018-11-11T00:55:36.097Z,7.10
2018-11-11T00:58:05.261Z,7.10
2018-11-11T01:00:34.425Z,7.40
2018-11-11T01:03:03.638Z,7.60
2018-11-11T01:05:32.814Z,7.90
2018-11-11T01:08:02.066Z,8.00
2018-11-11T01:10:31.267Z,8.10
2018-11-11T01:13:00.443Z,7.70
2018-11-11T01:15:55.762Z,8.20
2018-11-11T01:18:24.950Z,8.40
2018-11-11T01:20:54.113Z,8.10
2018-11-11T01:23:23.343Z,8.00
2018-11-11T01:25:52.500Z,7.70
2018-11-11T01:28:21.701Z,7.40
2018-11-11T01:30:50.914Z,7.70
2018-11-11T01:33:20.092Z,8.30
2018-11-11T01:35:49.259Z,8.00
2018-11-11T01:38:18.457Z,8.50
2018-11-11T01:40:47.677Z,8.60
2018-11-11T01:44:05.370Z,8.50
2018-11-11T01:46:34.789Z,8.60
2018-11-11T01:49:03.962Z,8.20
2018-11-11T01:51:33.192Z,7.80
2018-11-11T01:54:02.384Z,7.40
2018-11-11T01:56:31.564Z,7.50
2018-11-11T01:59:00.773Z,7.20
2018-11-11T02:01:29.970Z,6.80
2018-11-11T02:03:59.242Z,6.70
2018-11-11T02:06:28.438Z,6.50
2018-11-11T02:08:57.754Z,6.50
2018-11-11T02:11:26.990Z,6.20
2018-11-11T02:13:56.850Z,6.40
2018-11-11T02:16:26.030Z,6.50
2018-11-11T02:18:55.243Z,7.00
2018-11-11T02:21:24.462Z,7.80
2018-11-11T02:23:53.611Z,7.90
2018-11-11T02:29:22.749Z,8.00
2018-11-11T02:31:51.925Z,8.30
2018-11-11T02:34:21.100Z,8.10
2018-11-11T02:36:50.268Z,8.40
2018-11-11T02:39:19.443Z,8.50
2018-11-11T02:41:48.649Z,8.50
2018-11-11T02:44:17.813Z,8.50
2018-11-11T02:46:47.039Z,8.20
2018-11-11T02:49:16.222Z,8.50
2018-11-11T02:51:45.503Z,7.80
2018-11-11T02:54:14.657Z,7.10
2018-11-11T02:56:43.865Z,6.90
2018-11-11T02:59:13.032Z,6.70
2018-11-11T03:01:58.272Z,6.50
2018-11-11T03:04:27.472Z,6.70
2018-11-11T03:06:56.644Z,6.80
2018-11-11T03:09:26.387Z,7.40
2018-11-11T03:11:55.569Z,7.20
2018-11-11T03:14:24.825Z,7.60
2018-11-11T03:16:54.052Z,7.80
2018-11-11T03:19:23.364Z,7.50
2018-11-11T03:21:58.875Z,7.20
2018-11-11T03:24:28.056Z,6.70
2018-11-11T03:26:57.226Z,7.00
2018-11-11T03:29:26.441Z,7.80
2018-11-11T03:31:57.785Z,7.10
2018-11-11T03:34:27.036Z,6.60
2018-11-11T03:36:56.189Z,6.30
2018-11-11T03:39:25.344Z,6.40
2018-11-11T03:41:54.541Z,6.40
2018-11-11T03:44:23.718Z,6.20
2018-11-11T03:46:52.903Z,5.80
2018-11-11T03:49:22.297Z,6.00
2018-11-11T03:51:51.477Z,5.90
2018-11-11T03:54:20.632Z,5.90
2018-11-11T03:56:49.816Z,6.40
2018-11-11T03:59:19.007Z,6.10
2018-11-11T04:01:48.174Z,5.50
2018-11-11T04:04:17.395Z,5.30
2018-11-11T04:06:46.606Z,5.80
2018-11-11T04:09:15.801Z,6.40
2018-11-11T04:11:45.043Z,7.10
2018-11-11T04:14:14.229Z,6.70
2018-11-11T04:16:43.400Z,6.50
2018-11-11T04:19:12.613Z,7.40
2018-11-11T04:21:41.783Z,7.70
2018-11-11T04:24:10.945Z,7.70
2018-11-11T04:26:40.129Z,7.60
2018-11-11T04:29:09.288Z,6.80
2018-11-11T04:31:57.025Z,6.30
2018-11-11T04:34:26.188Z,7.10
2018-11-11T04:36:55.371Z,7.80
2018-11-11T04:39:24.579Z,8.00
2018-11-11T04:41:53.777Z,8.10
2018-11-11T04:44:22.953Z,7.70
2018-11-11T04:46:52.176Z,7.80
2018-11-11T04:49:21.438Z,8.10
2018-11-11T04:51:50.584Z,8.10
2018-11-11T04:54:19.838Z,8.20
2018-11-11T04:56:48.984Z,7.70
2018-11-11T05:02:08.973Z,7.30
2018-11-11T05:04:38.203Z,7.30
2018-11-11T05:07:08.386Z,7.50
2018-11-11T05:09:37.590Z,7.40
2018-11-11T05:12:06.858Z,7.60
2018-11-11T05:14:36.090Z,7.80
2018-11-11T05:17:05.420Z,7.30
2018-11-11T05:19:34.631Z,6.50
2018-11-11T05:22:03.850Z,7.40
2018-11-11T05:24:33.017Z,7.60
2018-11-11T05:27:02.193Z,8.00
2018-11-11T05:29:31.400Z,7.70
2018-11-11T05:32:00.594Z,7.70
2018-11-11T05:34:29.765Z,7.80
2018-11-11T05:36:58.992Z,7.80
2018-11-11T05:39:28.177Z,7.90
2018-11-11T05:41:59.070Z,7.90
2018-11-11T05:44:28.302Z,7.90
2018-11-11T05:46:57.448Z,7.90
2018-11-11T05:49:26.727Z,8.00
2018-11-11T05:51:55.905Z,7.90
2018-11-11T05:54:25.058Z,7.60
2018-11-11T05:56:54.252Z,7.80
2018-11-11T05:59:24.066Z,8.00
2018-11-11T06:01:53.221Z,8.00
2018-11-11T06:04:22.373Z,7.10
2018-11-11T06:06:51.654Z,6.10
2018-11-11T06:09:20.852Z,6.20
2018-11-11T06:11:50.074Z,6.30
2018-11-11T06:14:19.302Z,6.80
2018-11-11T06:16:48.461Z,6.60
2018-11-11T06:19:17.621Z,6.90
2018-11-11T06:21:46.865Z,6.70
2018-11-11T06:24:16.031Z,6.20
2018-11-11T06:26:45.210Z,5.60
2018-11-11T06:29:14.422Z,5.60
2018-11-11T06:31:43.683Z,6.00
2018-11-11T06:34:12.996Z,5.90
2018-11-11T06:36:42.149Z,6.60
2018-11-11T06:39:12.468Z,6.80
2018-11-11T06:41:42.013Z,6.70
2018-11-11T06:44:11.188Z,7.00
2018-11-11T06:46:40.370Z,7.30
2018-11-11T06:49:09.630Z,7.50
2018-11-11T06:51:38.789Z,7.20
2018-11-11T06:54:07.958Z,6.60
2018-11-11T06:56:37.166Z,6.90
2018-11-11T06:59:06.353Z,7.50
2018-11-11T07:01:35.662Z,7.50
2018-11-11T07:04:05.175Z,7.60
2018-11-11T07:06:57.402Z,6.90
2018-11-11T07:09:26.585Z,6.60
2018-11-11T07:11:55.765Z,7.10
2018-11-11T07:14:25.201Z,7.70
2018-11-11T07:16:54.408Z,7.80
2018-11-11T07:19:23.571Z,7.80
2018-11-11T07:21:52.748Z,7.30
2018-11-11T07:24:21.953Z,6.90
2018-11-11T07:26:51.118Z,7.00
2018-11-11T07:29:20.275Z,7.20
2018-11-11T07:31:49.481Z,7.40
2018-11-11T07:34:18.629Z,7.00
2018-11-11T07:36:47.810Z,6.70
2018-11-11T07:39:17.219Z,7.40
2018-11-11T07:41:46.440Z,7.10
2018-11-11T07:44:15.668Z,7.50
2018-11-11T07:46:44.878Z,7.50
2018-11-11T07:49:14.161Z,7.20
2018-11-11T07:51:43.344Z,7.10
2018-11-11T07:54:12.569Z,6.90
2018-11-11T07:56:41.750Z,6.90
2018-11-11T07:59:10.910Z,7.00
2018-11-11T08:01:40.907Z,6.80
2018-11-11T08:04:10.113Z,6.70
2018-11-11T08:06:39.310Z,6.70
2018-11-11T08:09:08.544Z,6.70
2018-11-11T08:11:59.934Z,6.70
2018-11-11T08:14:29.533Z,6.80
2018-11-11T08:16:59.413Z,6.80
2018-11-11T08:19:28.691Z,6.90
2018-11-11T08:21:57.917Z,6.90
2018-11-11T08:24:27.081Z,7.00
2018-11-11T08:26:56.257Z,7.00
2018-11-11T08:29:25.725Z,7.10
2018-11-11T08:32:00.614Z,7.20
2018-11-11T08:34:29.823Z,7.30
2018-11-11T08:36:59.006Z,7.40
2018-11-11T08:39:28.164Z,7.80
2018-11-11T08:41:57.373Z,8.00
2018-11-11T08:44:26.621Z,8.10
2018-11-11T08:46:55.773Z,8.20
2018-11-11T08:49:24.989Z,8.20
2018-11-11T08:51:54.160Z,8.30
2018-11-11T08:54:23.312Z,8.40
2018-11-11T08:56:52.498Z,8.40
2018-11-11T08:59:21.666Z,8.50
2018-11-11T09:01:50.852Z,8.70
2018-11-11T09:04:20.067Z,8.80
2018-11-11T09:06:49.289Z,8.90
2018-11-11T09:09:18.484Z,8.90
2018-11-11T09:11:47.684Z,8.80
2018-11-11T09:14:16.882Z,9.00
2018-11-11T09:16:46.199Z,9.00
2018-11-11T09:19:15.526Z,9.20
2018-11-11T09:21:44.730Z,9.10
2018-11-11T09:24:13.927Z,9.20
2018-11-11T09:26:59.460Z,9.20
2018-11-11T09:29:28.702Z,9.40
2018-11-11T09:31:59.737Z,9.50
2018-11-11T09:34:28.904Z,9.70
2018-11-11T09:36:58.079Z,9.70
2018-11-11T09:39:27.449Z,9.80
2018-11-11T09:41:57.375Z,9.90
2018-11-11T09:44:26.581Z,10.10
2018-11-11T09:46:59.422Z,10.30
2018-11-11T09:49:57.949Z,10.10
2018-11-11T09:52:56.998Z,10.20
2018-11-11T10:01:56.633Z,10.40
2018-11-11T10:04:51.840Z,10.60
2018-11-11T10:14:04.821Z,10.90
2018-11-11T10:38:57.128Z,11.70
2018-11-11T10:56:32.192Z,12.00
2018-11-11T11:14:51.702Z,12.50
2018-11-11T11:29:11.149Z,12.70
2018-11-11T11:32:00.067Z,12.80
2018-11-11T11:34:52.548Z,12.80
2018-11-11T11:52:14.698Z,12.90
2018-11-11T11:54:53.772Z,12.90
2018-11-11T11:57:22.992Z,13.00
2018-11-11T11:59:52.176Z,13.10
2018-11-11T12:02:21.609Z,13.10
2018-11-11T12:04:50.767Z,13.10
2018-11-11T12:07:20.054Z,13.10
2018-11-11T12:09:58.922Z,13.20
2018-11-11T12:12:28.114Z,13.20
2018-11-11T12:14:57.345Z,13.20
2018-11-11T12:17:26.549Z,13.10
2018-11-11T12:19:59.681Z,13.40
2018-11-11T12:22:28.863Z,13.50
2018-11-11T12:24:59.329Z,13.50
2018-11-11T12:27:57.873Z,13.60
2018-11-11T12:30:31.650Z,13.60
2018-11-11T12:33:00.755Z,13.60
2018-11-11T12:35:30.324Z,13.50
2018-11-11T12:37:59.767Z,13.60
2018-11-11T12:40:58.216Z,13.70
2018-11-11T12:43:27.393Z,13.50
2018-11-11T12:46:00.600Z,13.50
2018-11-11T12:48:56.854Z,13.40
2018-11-11T12:51:26.125Z,13.50
2018-11-11T12:54:01.505Z,13.50
2018-11-11T12:56:57.290Z,13.50
2018-11-11T13:11:56.800Z,13.60
2018-11-11T13:14:57.349Z,13.60
2018-11-11T13:20:56.505Z,13.60
2018-11-11T13:36:56.616Z,13.60
2018-11-11T14:02:31.850Z,13.80
2018-11-11T14:05:01.686Z,13.90
2018-11-11T14:07:57.232Z,13.90
2018-11-11T14:13:23.542Z,13.90
2018-11-11T14:15:58.972Z,13.90
2018-11-11T14:18:57.196Z,13.90
2018-11-11T14:24:51.881Z,13.80
2018-11-11T14:30:22.450Z,13.80
2018-11-11T14:32:59.435Z,13.80
2018-11-11T14:35:28.629Z,13.80
2018-11-11T14:37:59.150Z,13.80
2018-11-11T14:40:57.501Z,13.80
2018-11-11T14:43:40.790Z,13.70
2018-11-11T14:58:12.168Z,13.70
2018-11-11T15:00:57.981Z,13.70
2018-11-11T15:03:27.249Z,13.60
2018-11-11T15:05:59.954Z,13.60
2018-11-11T15:08:29.203Z,13.60
2018-11-11T15:11:00.102Z,13.60
2018-11-11T15:13:29.287Z,13.60
2018-11-11T15:15:59.748Z,13.60
2018-11-11T15:18:28.988Z,13.60
2018-11-11T15:20:59.666Z,13.50
2018-11-11T15:23:58.136Z,13.60
2018-11-11T15:26:27.380Z,13.50
2018-11-11T15:29:00.915Z,13.70
2018-11-11T15:31:30.106Z,13.60
2018-11-11T15:33:59.406Z,13.60
2018-11-11T15:36:28.590Z,13.60
2018-11-11T15:38:59.564Z,13.60
2018-11-11T15:41:58.067Z,13.40
2018-11-11T15:44:51.937Z,13.50
2018-11-11T15:47:21.110Z,13.50
2018-11-11T15:50:00.575Z,13.50
2018-11-11T15:52:57.132Z,13.30
2018-11-11T15:58:56.983Z,12.80
2018-11-11T16:04:52.626Z,12.80
2018-11-11T16:13:40.357Z,12.80
2018-11-11T16:16:09.610Z,12.70
2018-11-11T16:18:57.461Z,12.70
2018-11-11T16:21:56.481Z,12.50
2018-11-11T16:24:52.277Z,12.70
2018-11-11T16:48:54.383Z,12.50
2018-11-11T16:54:51.890Z,12.60
2018-11-11T17:03:24.478Z,12.50
2018-11-11T17:05:53.858Z,12.50
2018-11-11T17:08:34.359Z,12.50
2018-11-11T17:16:03.757Z,12.50
2018-11-11T17:21:59.203Z,12.30
2018-11-11T17:24:53.534Z,12.30
2018-11-11T17:27:30.443Z,12.20
2018-11-11T17:29:59.813Z,12.30
2018-11-11T17:32:48.789Z,12.30
2018-11-11T17:38:18.447Z,12.00
2018-11-11T17:40:49.854Z,11.90
2018-11-11T17:46:19.013Z,12.10
2018-11-11T17:49:00.670Z,12.20
2018-11-11T17:51:39.910Z,12.10
2018-11-11T18:06:10.527Z,11.70
2018-11-11T18:08:58.810Z,11.40
2018-11-11T18:11:50.792Z,11.30
2018-11-11T18:14:20.118Z,11.20
2018-11-11T18:16:53.254Z,11.00
2018-11-11T18:22:22.893Z,11.00
2018-11-11T18:24:52.219Z,11.10
2018-11-11T18:45:57.225Z,10.80
2018-11-11T18:48:36.134Z,10.60
2018-11-11T18:51:05.461Z,10.60
2018-11-11T18:53:57.769Z,10.40
2018-11-11T18:59:11.525Z,10.30
2018-11-11T19:01:40.761Z,10.50
2018-11-11T19:07:11.314Z,11.00
2018-11-11T19:09:59.893Z,10.90
2018-11-11T19:12:57.957Z,10.50
2018-11-11T19:15:27.390Z,11.00
2018-11-11T19:17:56.608Z,11.10
2018-11-11T19:20:26.498Z,11.00
2018-11-11T19:22:55.720Z,10.90
2018-11-11T19:25:26.633Z,11.10
2018-11-11T19:27:56.521Z,10.90
2018-11-11T19:30:26.869Z,10.60
2018-11-11T19:32:56.062Z,10.60
2018-11-11T19:35:26.272Z,10.40
2018-11-11T19:38:01.318Z,10.10
2018-11-11T19:40:57.180Z,10.10
2018-11-11T19:43:26.572Z,10.50
2018-11-11T19:45:55.855Z,10.20
2018-11-11T19:48:25.899Z,10.40
2018-11-11T19:51:01.265Z,10.40
2018-11-11T19:53:31.669Z,10.60
2018-11-11T19:56:00.831Z,10.70
2018-11-11T19:58:30.757Z,10.60
2018-11-11T20:04:02.899Z,10.60
2018-11-11T20:06:32.166Z,10.70
2018-11-11T20:09:01.902Z,10.60
2018-11-11T20:11:56.627Z,10.70
2018-11-11T20:14:25.957Z,10.70
2018-11-11T20:16:55.300Z,10.60
2018-11-11T20:19:24.506Z,10.70
2018-11-11T20:21:53.835Z,10.70
2018-11-11T20:24:23.094Z,10.70
2018-11-11T20:26:52.326Z,10.20
2018-11-11T20:29:21.627Z,9.70
2018-11-11T20:31:50.840Z,9.80
2018-11-11T20:34:20.111Z,10.40
2018-11-11T20:36:49.352Z,10.50
2018-11-11T20:39:18.582Z,10.10
2018-11-11T20:42:00.547Z,9.50
2018-11-11T20:44:29.807Z,8.70
2018-11-11T20:47:00.030Z,9.00
2018-11-11T20:49:29.312Z,9.80
2018-11-11T20:51:59.840Z,9.90
2018-11-11T20:54:29.197Z,10.00
2018-11-11T20:56:59.457Z,10.00
2018-11-11T20:59:58.155Z,9.80
2018-11-11T21:02:27.495Z,9.30
2018-11-11T21:04:56.697Z,8.90
2018-11-11T21:07:25.943Z,9.70
2018-11-11T21:09:55.307Z,9.30
2018-11-11T21:12:25.512Z,9.30
2018-11-11T21:14:54.694Z,10.00
2018-11-11T21:17:24.031Z,10.10
2018-11-11T21:19:59.800Z,10.10
2018-11-11T21:22:29.038Z,9.90
2018-11-11T21:24:58.790Z,9.30
2018-11-11T21:27:27.986Z,9.50
2018-11-11T21:29:57.224Z,9.10
2018-11-11T21:32:26.731Z,8.90
2018-11-11T21:34:55.959Z,9.10
2018-11-11T21:40:26.184Z,9.30
2018-11-11T21:42:55.966Z,8.10
2018-11-11T21:45:26.072Z,7.70
2018-11-11T21:48:01.378Z,8.60
2018-11-11T21:50:31.097Z,9.30
2018-11-11T21:53:25.182Z,9.10
2018-11-11T21:55:54.419Z,9.00
2018-11-11T21:58:23.661Z,9.10
2018-11-11T22:00:53.074Z,9.30
2018-11-11T22:03:22.515Z,9.40
2018-11-11T22:05:52.002Z,9.20
2018-11-11T22:11:22.128Z,8.30
2018-11-11T22:13:51.365Z,9.10
2018-11-11T22:16:20.887Z,9.30
2018-11-11T22:18:50.095Z,8.80
2018-11-11T22:21:19.286Z,9.40
2018-11-11T22:23:48.473Z,9.40
2018-11-11T22:26:17.698Z,8.80
2018-11-11T22:28:46.875Z,8.30
2018-11-11T22:31:16.066Z,8.40
2018-11-11T22:33:45.405Z,8.70
2018-11-11T22:36:14.585Z,9.40
2018-11-11T22:38:43.778Z,9.40
2018-11-11T22:41:13.060Z,9.30
2018-11-11T22:43:42.266Z,9.40
2018-11-11T22:46:11.453Z,9.20
2018-11-11T22:48:41.089Z,9.20
2018-11-11T22:51:10.252Z,9.40
2018-11-11T22:53:39.420Z,9.50
2018-11-11T22:56:08.622Z,8.90
2018-11-11T22:58:37.805Z,8.10
2018-11-11T23:01:12.476Z,8.50
2018-11-11T23:03:41.627Z,8.50
2018-11-11T23:06:10.793Z,8.10
2018-11-11T23:08:39.990Z,7.80
2018-11-11T23:11:09.264Z,7.80
2018-11-11T23:13:38.816Z,7.60
2018-11-11T23:16:08.173Z,8.40
2018-11-11T23:18:37.209Z,8.90
2018-11-11T23:21:06.509Z,8.70
2018-11-11T23:23:35.718Z,8.60
2018-11-11T23:26:04.926Z,8.00
2018-11-11T23:28:34.170Z,7.80
2018-11-11T23:31:03.361Z,8.70
2018-11-11T23:33:32.661Z,9.00
2018-11-11T23:36:01.852Z,9.00
2018-11-11T23:38:31.052Z,8.90
2018-11-11T23:41:00.254Z,8.20
2018-11-11T23:43:29.438Z,8.60
2018-11-11T23:45:58.677Z,8.60
2018-11-11T23:48:27.946Z,8.70
2018-11-11T23:50:57.128Z,8.80
2018-11-11T23:56:26.787Z,8.50
2018-11-11T23:58:56.124Z,8.60
